Slavonski Brod, Croatia
Current Conditions -  °F | °C
As of 5:00 PM on Thursday 27 Nov 2014 (Local Time) from LDOS Reporting Station
Overcast Overcast  
Wind Chill: 31°   Ceiling: 3700
Heat Index: 36°   Visibility: 4mi
Dew Point: 32°   Wind: 6mph
Humidity: 87%   Direction: 100°E
Pressure: 30.09"   Gusts: NA
Location:  45.16°N, 18.01°E
Report Text: LDOS 271600Z 10005KT 6000 SCT013 OVC037 02/00 Q1019
Loading
Personal Weather Stations






























Interactive Weather Map New forecast layout! Learn more

10-Day Weather Forecast

Advertisements
Track Severe Weather on mobile